sensor_id;sensor_type;location;lat;lon;timestamp;pressure;altitude;pressure_sealevel;temperature;humidity
10946;BME280;5525;42.648;23.368;2023-03-12T00:02:19;93803.16;;;2.82;100.00
10946;BME280;5525;42.648;23.368;2023-03-12T00:04:46;93803.44;;;2.81;100.00
10946;BME280;5525;42.648;23.368;2023-03-12T00:07:13;93811.72;;;2.79;100.00
10946;BME280;5525;42.648;23.368;2023-03-12T00:09:41;93787.25;;;2.77;100.00
10946;BME280;5525;42.648;23.368;2023-03-12T00:12:08;93801.66;;;2.76;100.00
10946;BME280;5525;42.648;23.368;2023-03-12T00:14:35;93807.28;;;2.75;100.00
10946;BME280;5525;42.648;23.368;2023-03-12T00:17:01;93815.38;;;2.70;100.00
10946;BME280;5525;42.648;23.368;2023-03-12T00:19:28;93820.19;;;2.68;100.00
10946;BME280;5525;42.648;23.368;2023-03-12T00:21:55;93817.06;;;2.66;100.00
10946;BME280;5525;42.648;23.368;2023-03-12T00:24:22;93827.31;;;2.59;100.00
10946;BME280;5525;42.648;23.368;2023-03-12T00:26:50;93834.53;;;2.58;100.00
10946;BME280;5525;42.648;23.368;2023-03-12T00:29:16;93836.09;;;2.59;100.00
10946;BME280;5525;42.648;23.368;2023-03-12T00:31:43;93837.97;;;2.59;100.00
10946;BME280;5525;42.648;23.368;2023-03-12T00:34:10;93849.22;;;2.56;100.00
10946;BME280;5525;42.648;23.368;2023-03-12T00:36:36;93843.88;;;2.56;100.00
10946;BME280;5525;42.648;23.368;2023-03-12T00:39:05;93835.38;;;2.54;100.00
10946;BME280;5525;42.648;23.368;2023-03-12T00:41:31;93813.28;;;2.53;100.00
10946;BME280;5525;42.648;23.368;2023-03-12T00:44:00;93846.25;;;2.57;100.00
10946;BME280;5525;42.648;23.368;2023-03-12T00:46:26;93833.31;;;2.51;100.00
10946;BME280;5525;42.648;23.368;2023-03-12T00:48:53;93838.25;;;2.44;100.00
10946;BME280;5525;42.648;23.368;2023-03-12T00:51:20;93836.38;;;2.44;100.00
10946;BME280;5525;42.648;23.368;2023-03-12T00:53:46;93828.38;;;2.44;100.00
10946;BME280;5525;42.648;23.368;2023-03-12T00:56:13;93822.16;;;2.35;100.00
10946;BME280;5525;42.648;23.368;2023-03-12T00:58:40;93839.13;;;2.39;100.00
10946;BME280;5525;42.648;23.368;2023-03-12T01:01:09;93844.22;;;2.36;100.00
10946;BME280;5525;42.648;23.368;2023-03-12T01:03:35;93831.50;;;2.33;100.00
10946;BME280;5525;42.648;23.368;2023-03-12T01:06:03;93842.88;;;2.38;100.00
10946;BME280;5525;42.648;23.368;2023-03-12T01:08:30;93845.63;;;2.33;100.00
10946;BME280;5525;42.648;23.368;2023-03-12T01:10:57;93851.25;;;2.32;100.00
10946;BME280;5525;42.648;23.368;2023-03-12T01:13:24;93852.59;;;2.29;100.00
10946;BME280;5525;42.648;23.368;2023-03-12T01:15:50;93861.16;;;2.26;100.00
10946;BME280;5525;42.648;23.368;2023-03-12T01:18:18;93869.25;;;2.21;100.00
10946;BME280;5525;42.648;23.368;2023-03-12T01:20:45;93858.03;;;2.24;100.00
10946;BME280;5525;42.648;23.368;2023-03-12T01:23:12;93865.00;;;2.20;100.00
10946;BME280;5525;42.648;23.368;2023-03-12T01:25:39;93855.44;;;2.19;100.00
10946;BME280;5525;42.648;23.368;2023-03-12T01:28:06;93857.69;;;2.12;100.00
10946;BME280;5525;42.648;23.368;2023-03-12T01:30:33;93858.66;;;2.03;100.00
10946;BME280;5525;42.648;23.368;2023-03-12T01:32:59;93870.94;;;1.99;100.00
10946;BME280;5525;42.648;23.368;2023-03-12T01:35:28;93859.81;;;1.97;100.00
10946;BME280;5525;42.648;23.368;2023-03-12T01:37:54;93853.03;;;2.04;100.00
10946;BME280;5525;42.648;23.368;2023-03-12T01:40:22;93857.63;;;1.99;100.00
10946;BME280;5525;42.648;23.368;2023-03-12T01:42:52;93858.22;;;1.96;100.00
10946;BME280;5525;42.648;23.368;2023-03-12T01:48:23;93863.06;;;1.94;100.00
10946;BME280;5525;42.648;23.368;2023-03-12T01:50:52;93848.88;;;1.98;100.00
10946;BME280;5525;42.648;23.368;2023-03-12T01:53:19;93849.06;;;2.02;100.00
10946;BME280;5525;42.648;23.368;2023-03-12T01:55:45;93835.75;;;2.02;100.00
10946;BME280;5525;42.648;23.368;2023-03-12T01:58:12;93868.56;;;1.97;100.00
10946;BME280;5525;42.648;23.368;2023-03-12T02:00:39;93861.09;;;1.99;100.00
10946;BME280;5525;42.648;23.368;2023-03-12T02:03:07;93848.75;;;2.03;100.00
10946;BME280;5525;42.648;23.368;2023-03-12T02:05:37;93859.13;;;2.05;100.00
10946;BME280;5525;42.648;23.368;2023-03-12T02:08:12;93871.16;;;2.02;100.00
10946;BME280;5525;42.648;23.368;2023-03-12T02:10:40;93862.94;;;1.99;100.00
10946;BME280;5525;42.648;23.368;2023-03-12T02:13:06;93865.72;;;1.94;100.00
10946;BME280;5525;42.648;23.368;2023-03-12T02:15:34;93877.78;;;1.86;100.00
10946;BME280;5525;42.648;23.368;2023-03-12T02:18:01;93871.50;;;1.96;100.00
10946;BME280;5525;42.648;23.368;2023-03-12T02:20:34;93874.75;;;1.93;100.00
10946;BME280;5525;42.648;23.368;2023-03-12T02:23:05;93871.44;;;2.01;100.00
10946;BME280;5525;42.648;23.368;2023-03-12T02:25:37;93875.97;;;2.00;100.00
10946;BME280;5525;42.648;23.368;2023-03-12T02:28:08;93873.31;;;2.00;100.00
10946;BME280;5525;42.648;23.368;2023-03-12T02:30:35;93877.88;;;2.00;100.00
10946;BME280;5525;42.648;23.368;2023-03-12T02:33:06;93868.38;;;1.94;100.00
10946;BME280;5525;42.648;23.368;2023-03-12T02:35:33;93863.34;;;1.92;100.00
10946;BME280;5525;42.648;23.368;2023-03-12T02:38:00;93874.75;;;1.93;100.00
10946;BME280;5525;42.648;23.368;2023-03-12T02:40:30;93865.72;;;1.94;100.00
10946;BME280;5525;42.648;23.368;2023-03-12T02:43:05;93870.22;;;1.93;100.00
10946;BME280;5525;42.648;23.368;2023-03-12T02:45:33;93870.00;;;1.90;100.00
10946;BME280;5525;42.648;23.368;2023-03-12T02:48:01;93850.81;;;1.93;100.00
10946;BME280;5525;42.648;23.368;2023-03-12T02:50:28;93858.31;;;1.91;100.00
10946;BME280;5525;42.648;23.368;2023-03-12T02:52:54;93853.63;;;1.83;100.00
10946;BME280;5525;42.648;23.368;2023-03-12T02:55:21;93853.91;;;1.81;100.00
10946;BME280;5525;42.648;23.368;2023-03-12T02:57:48;93857.94;;;1.78;100.00
10946;BME280;5525;42.648;23.368;2023-03-12T03:00:17;93862.47;;;1.78;100.00
10946;BME280;5525;42.648;23.368;2023-03-12T03:02:44;93850.47;;;1.81;100.00
10946;BME280;5525;42.648;23.368;2023-03-12T03:05:11;93845.66;;;1.83;100.00
10946;BME280;5525;42.648;23.368;2023-03-12T03:07:38;93846.53;;;1.78;100.00
10946;BME280;5525;42.648;23.368;2023-03-12T03:10:06;93860.81;;;1.82;100.00
10946;BME280;5525;42.648;23.368;2023-03-12T03:12:34;93872.63;;;1.76;100.00
10946;BME280;5525;42.648;23.368;2023-03-12T03:15:01;93852.31;;;1.80;100.00
10946;BME280;5525;42.648;23.368;2023-03-12T03:17:29;93854.28;;;1.74;100.00
10946;BME280;5525;42.648;23.368;2023-03-12T03:19:56;93852.19;;;1.71;100.00
10946;BME280;5525;42.648;23.368;2023-03-12T03:22:23;93849.03;;;1.69;100.00
10946;BME280;5525;42.648;23.368;2023-03-12T03:24:49;93852.63;;;1.78;100.00
10946;BME280;5525;42.648;23.368;2023-03-12T03:27:18;93845.22;;;1.75;100.00
10946;BME280;5525;42.648;23.368;2023-03-12T03:29:45;93846.22;;;1.80;100.00
10946;BME280;5525;42.648;23.368;2023-03-12T03:32:12;93836.28;;;1.85;100.00
10946;BME280;5525;42.648;23.368;2023-03-12T03:34:40;93846.41;;;1.83;100.00
10946;BME280;5525;42.648;23.368;2023-03-12T03:37:07;93866.34;;;1.86;100.00
10946;BME280;5525;42.648;23.368;2023-03-12T03:39:33;93854.22;;;1.80;100.00
10946;BME280;5525;42.648;23.368;2023-03-12T03:42:00;93868.38;;;1.75;100.00
10946;BME280;5525;42.648;23.368;2023-03-12T03:44:27;93876.50;;;1.84;100.00
10946;BME280;5525;42.648;23.368;2023-03-12T03:46:54;93870.94;;;1.80;100.00
10946;BME280;5525;42.648;23.368;2023-03-12T03:49:21;93864.13;;;1.74;100.00
10946;BME280;5525;42.648;23.368;2023-03-12T03:51:50;93874.00;;;1.73;100.00
10946;BME280;5525;42.648;23.368;2023-03-12T03:54:17;93881.69;;;1.75;100.00
10946;BME280;5525;42.648;23.368;2023-03-12T03:56:44;93891.88;;;1.68;100.00
10946;BME280;5525;42.648;23.368;2023-03-12T03:59:11;93899.00;;;1.72;100.00
10946;BME280;5525;42.648;23.368;2023-03-12T04:01:38;93906.22;;;1.72;100.00
10946;BME280;5525;42.648;23.368;2023-03-12T04:04:05;93910.22;;;1.69;100.00
10946;BME280;5525;42.648;23.368;2023-03-12T04:06:32;93927.34;;;1.63;100.00
10946;BME280;5525;42.648;23.368;2023-03-12T04:09:00;93925.69;;;1.67;100.00
10946;BME280;5525;42.648;23.368;2023-03-12T04:11:27;93930.16;;;1.72;100.00
10946;BME280;5525;42.648;23.368;2023-03-12T04:13:53;93940.63;;;1.63;100.00
10946;BME280;5525;42.648;23.368;2023-03-12T04:16:20;93936.63;;;1.66;100.00
10946;BME280;5525;42.648;23.368;2023-03-12T04:18:47;93935.16;;;1.55;100.00
10946;BME280;5525;42.648;23.368;2023-03-12T04:21:14;93946.94;;;1.49;100.00
10946;BME280;5525;42.648;23.368;2023-03-12T04:23:41;93956.00;;;1.48;100.00
10946;BME280;5525;42.648;23.368;2023-03-12T04:26:09;93947.44;;;1.51;100.00
10946;BME280;5525;42.648;23.368;2023-03-12T04:28:36;93959.44;;;1.48;100.00
10946;BME280;5525;42.648;23.368;2023-03-12T04:31:04;93962.16;;;1.43;100.00
10946;BME280;5525;42.648;23.368;2023-03-12T04:33:33;93956.78;;;1.48;100.00
10946;BME280;5525;42.648;23.368;2023-03-12T04:36:00;93963.19;;;1.47;100.00
10946;BME280;5525;42.648;23.368;2023-03-12T04:38:27;93985.63;;;1.41;100.00
10946;BME280;5525;42.648;23.368;2023-03-12T04:40:58;93989.66;;;1.34;100.00
10946;BME280;5525;42.648;23.368;2023-03-12T04:43:27;93977.41;;;1.38;100.00
10946;BME280;5525;42.648;23.368;2023-03-12T04:45:54;93988.81;;;1.38;100.00
10946;BME280;5525;42.648;23.368;2023-03-12T04:48:21;93997.44;;;1.30;100.00
10946;BME280;5525;42.648;23.368;2023-03-12T04:50:48;94002.78;;;1.25;100.00
10946;BME280;5525;42.648;23.368;2023-03-12T04:53:15;94016.38;;;1.24;100.00
10946;BME280;5525;42.648;23.368;2023-03-12T04:55:42;94028.31;;;1.26;100.00
10946;BME280;5525;42.648;23.368;2023-03-12T04:58:08;94028.78;;;1.33;100.00
10946;BME280;5525;42.648;23.368;2023-03-12T05:00:38;94027.97;;;1.33;100.00
10946;BME280;5525;42.648;23.368;2023-03-12T05:03:05;94040.81;;;1.26;100.00
10946;BME280;5525;42.648;23.368;2023-03-12T05:05:32;94031.53;;;1.23;100.00
10946;BME280;5525;42.648;23.368;2023-03-12T05:08:00;94034.38;;;1.32;100.00
10946;BME280;5525;42.648;23.368;2023-03-12T05:10:26;94039.91;;;1.35;100.00
10946;BME280;5525;42.648;23.368;2023-03-12T05:12:53;94044.16;;;1.36;100.00
10946;BME280;5525;42.648;23.368;2023-03-12T05:15:20;94037.19;;;1.40;100.00
10946;BME280;5525;42.648;23.368;2023-03-12T05:17:48;94039.00;;;1.45;100.00
10946;BME280;5525;42.648;23.368;2023-03-12T05:20:15;94059.72;;;1.48;98.63
10946;BME280;5525;42.648;23.368;2023-03-12T05:22:42;94055.66;;;1.55;98.67
10946;BME280;5525;42.648;23.368;2023-03-12T05:25:10;94056.69;;;1.59;96.40
10946;BME280;5525;42.648;23.368;2023-03-12T05:27:37;94067.28;;;1.64;96.47
10946;BME280;5525;42.648;23.368;2023-03-12T05:30:05;94061.41;;;1.67;92.69
10946;BME280;5525;42.648;23.368;2023-03-12T05:32:32;94065.34;;;1.70;92.99
10946;BME280;5525;42.648;23.368;2023-03-12T05:35:00;94062.91;;;1.73;90.44
10946;BME280;5525;42.648;23.368;2023-03-12T05:37:26;94073.44;;;1.84;88.27
10946;BME280;5525;42.648;23.368;2023-03-12T05:39:53;94055.91;;;1.83;85.80
10946;BME280;5525;42.648;23.368;2023-03-12T05:42:20;94072.47;;;1.98;86.93
10946;BME280;5525;42.648;23.368;2023-03-12T05:44:47;94067.16;;;1.98;86.00
10946;BME280;5525;42.648;23.368;2023-03-12T05:47:13;94076.84;;;2.08;87.11
10946;BME280;5525;42.648;23.368;2023-03-12T05:49:40;94075.84;;;2.04;87.82
10946;BME280;5525;42.648;23.368;2023-03-12T05:52:08;94073.44;;;2.07;90.47
10946;BME280;5525;42.648;23.368;2023-03-12T05:54:35;94077.91;;;2.12;85.42
10946;BME280;5525;42.648;23.368;2023-03-12T05:57:01;94080.69;;;2.20;86.08
10946;BME280;5525;42.648;23.368;2023-03-12T05:59:28;94093.38;;;2.28;87.83
10946;BME280;5525;42.648;23.368;2023-03-12T06:01:56;94094.69;;;2.31;82.42
10946;BME280;5525;42.648;23.368;2023-03-12T06:04:22;94102.13;;;2.34;80.03
10946;BME280;5525;42.648;23.368;2023-03-12T06:06:49;94094.69;;;2.31;80.50
10946;BME280;5525;42.648;23.368;2023-03-12T06:09:17;94101.53;;;2.37;86.49
10946;BME280;5525;42.648;23.368;2023-03-12T06:11:44;94097.84;;;2.33;90.44
10946;BME280;5525;42.648;23.368;2023-03-12T06:14:11;94090.66;;;2.33;88.52
10946;BME280;5525;42.648;23.368;2023-03-12T06:16:37;94107.16;;;2.35;91.32
10946;BME280;5525;42.648;23.368;2023-03-12T06:19:04;94093.31;;;2.33;92.64
10946;BME280;5525;42.648;23.368;2023-03-12T06:21:33;94115.94;;;2.36;93.83
10946;BME280;5525;42.648;23.368;2023-03-12T06:24:01;94111.41;;;2.36;94.29
10946;BME280;5525;42.648;23.368;2023-03-12T06:26:29;94112.78;;;2.34;94.73
10946;BME280;5525;42.648;23.368;2023-03-12T06:28:56;94127.38;;;2.36;95.90
10946;BME280;5525;42.648;23.368;2023-03-12T06:31:23;94116.16;;;2.39;95.30
10946;BME280;5525;42.648;23.368;2023-03-12T06:33:50;94138.28;;;2.40;94.91
10946;BME280;5525;42.648;23.368;2023-03-12T06:36:18;94144.44;;;2.35;97.80
10946;BME280;5525;42.648;23.368;2023-03-12T06:38:47;94137.97;;;2.41;98.61
10946;BME280;5525;42.648;23.368;2023-03-12T06:41:15;94136.75;;;2.52;98.40
10946;BME280;5525;42.648;23.368;2023-03-12T06:43:45;94133.78;;;2.54;100.00
10946;BME280;5525;42.648;23.368;2023-03-12T06:46:14;94143.91;;;2.57;99.19
10946;BME280;5525;42.648;23.368;2023-03-12T06:48:42;94140.56;;;2.65;99.49
10946;BME280;5525;42.648;23.368;2023-03-12T06:51:12;94146.47;;;2.62;100.00
10946;BME280;5525;42.648;23.368;2023-03-12T06:53:41;94151.97;;;2.70;100.00
10946;BME280;5525;42.648;23.368;2023-03-12T06:56:08;94160.63;;;2.81;100.00
10946;BME280;5525;42.648;23.368;2023-03-12T06:58:35;94169.25;;;2.73;100.00
10946;BME280;5525;42.648;23.368;2023-03-12T07:01:04;94165.66;;;2.82;100.00
10946;BME280;5525;42.648;23.368;2023-03-12T07:03:32;94162.50;;;2.80;99.17
10946;BME280;5525;42.648;23.368;2023-03-12T07:05:59;94163.06;;;2.96;99.92
10946;BME280;5525;42.648;23.368;2023-03-12T07:08:27;94161.84;;;2.88;97.56
10946;BME280;5525;42.648;23.368;2023-03-12T07:10:56;94183.03;;;2.98;97.72
10946;BME280;5525;42.648;23.368;2023-03-12T07:13:23;94191.19;;;2.88;96.63
10946;BME280;5525;42.648;23.368;2023-03-12T07:15:51;94190.91;;;2.90;95.80
10946;BME280;5525;42.648;23.368;2023-03-12T07:18:20;94199.88;;;2.94;94.63
10946;BME280;5525;42.648;23.368;2023-03-12T07:20:47;94196.59;;;3.20;92.66
10946;BME280;5525;42.648;23.368;2023-03-12T07:23:14;94200.13;;;3.34;89.25
10946;BME280;5525;42.648;23.368;2023-03-12T07:25:42;94203.38;;;5.53;75.97
10946;BME280;5525;42.648;23.368;2023-03-12T07:28:10;94201.16;;;9.32;54.35
10946;BME280;5525;42.648;23.368;2023-03-12T07:30:37;94195.00;;;11.78;43.62
10946;BME280;5525;42.648;23.368;2023-03-12T07:33:06;94195.72;;;11.27;41.35
10946;BME280;5525;42.648;23.368;2023-03-12T07:35:35;94189.53;;;10.79;41.75
10946;BME280;5525;42.648;23.368;2023-03-12T07:38:04;94199.16;;;7.65;47.82
10946;BME280;5525;42.648;23.368;2023-03-12T07:40:32;94211.81;;;5.82;56.19
10946;BME280;5525;42.648;23.368;2023-03-12T07:42:59;94198.19;;;5.79;59.09
10946;BME280;5525;42.648;23.368;2023-03-12T07:45:26;94201.06;;;5.24;62.08
10946;BME280;5525;42.648;23.368;2023-03-12T07:47:53;94183.13;;;5.25;60.63
10946;BME280;5525;42.648;23.368;2023-03-12T07:50:20;94211.22;;;5.00;63.14
10946;BME280;5525;42.648;23.368;2023-03-12T07:52:49;94212.25;;;4.77;63.27
10946;BME280;5525;42.648;23.368;2023-03-12T07:55:16;94219.28;;;4.46;64.46
10946;BME280;5525;42.648;23.368;2023-03-12T07:57:43;94220.56;;;4.62;64.68
10946;BME280;5525;42.648;23.368;2023-03-12T08:00:11;94225.94;;;4.49;65.10
10946;BME280;5525;42.648;23.368;2023-03-12T08:02:38;94217.91;;;4.62;65.95
10946;BME280;5525;42.648;23.368;2023-03-12T08:05:06;94221.34;;;4.90;60.36
10946;BME280;5525;42.648;23.368;2023-03-12T08:07:33;94246.59;;;5.11;58.86
10946;BME280;5525;42.648;23.368;2023-03-12T08:10:04;94241.66;;;5.40;57.93
10946;BME280;5525;42.648;23.368;2023-03-12T08:12:32;94239.84;;;5.63;56.07
10946;BME280;5525;42.648;23.368;2023-03-12T08:14:58;94245.47;;;6.49;52.68
10946;BME280;5525;42.648;23.368;2023-03-12T08:17:26;94248.59;;;8.15;48.61
10946;BME280;5525;42.648;23.368;2023-03-12T08:19:53;94249.84;;;10.83;41.63
10946;BME280;5525;42.648;23.368;2023-03-12T08:22:20;94247.31;;;12.10;38.01
10946;BME280;5525;42.648;23.368;2023-03-12T08:24:47;94237.78;;;13.96;34.74
10946;BME280;5525;42.648;23.368;2023-03-12T08:27:15;94239.03;;;13.83;31.68
10946;BME280;5525;42.648;23.368;2023-03-12T08:29:42;94262.03;;;13.54;32.76
10946;BME280;5525;42.648;23.368;2023-03-12T08:32:09;94270.56;;;13.72;31.72
10946;BME280;5525;42.648;23.368;2023-03-12T08:34:36;94271.41;;;13.10;32.70
10946;BME280;5525;42.648;23.368;2023-03-12T08:37:03;94271.88;;;14.47;31.95
10946;BME280;5525;42.648;23.368;2023-03-12T08:39:31;94278.16;;;14.70;31.95
10946;BME280;5525;42.648;23.368;2023-03-12T08:41:59;94269.59;;;14.68;30.16
10946;BME280;5525;42.648;23.368;2023-03-12T08:44:27;94276.06;;;15.01;29.23
10946;BME280;5525;42.648;23.368;2023-03-12T08:46:55;94274.22;;;15.73;28.08
10946;BME280;5525;42.648;23.368;2023-03-12T08:49:22;94280.88;;;16.87;27.43
10946;BME280;5525;42.648;23.368;2023-03-12T08:51:50;94263.16;;;16.70;27.05
10946;BME280;5525;42.648;23.368;2023-03-12T08:54:17;94280.81;;;15.98;27.58
10946;BME280;5525;42.648;23.368;2023-03-12T08:56:44;94274.19;;;17.18;26.79
10946;BME280;5525;42.648;23.368;2023-03-12T08:59:12;94300.41;;;16.33;26.12
10946;BME280;5525;42.648;23.368;2023-03-12T09:01:41;94301.19;;;16.34;26.48
10946;BME280;5525;42.648;23.368;2023-03-12T09:04:08;94290.22;;;15.33;28.06
10946;BME280;5525;42.648;23.368;2023-03-12T09:06:35;94294.47;;;14.89;27.90
10946;BME280;5525;42.648;23.368;2023-03-12T09:09:03;94283.44;;;14.44;28.82
10946;BME280;5525;42.648;23.368;2023-03-12T09:11:31;94287.25;;;15.87;27.76
10946;BME280;5525;42.648;23.368;2023-03-12T09:13:59;94296.78;;;16.81;25.87
10946;BME280;5525;42.648;23.368;2023-03-12T09:16:27;94301.97;;;15.37;27.19
10946;BME280;5525;42.648;23.368;2023-03-12T09:18:56;94295.63;;;16.82;25.74
10946;BME280;5525;42.648;23.368;2023-03-12T09:21:23;94282.13;;;17.30;25.43
10946;BME280;5525;42.648;23.368;2023-03-12T09:23:52;94265.66;;;17.23;26.44
10946;BME280;5525;42.648;23.368;2023-03-12T09:26:20;94294.44;;;19.58;24.31
10946;BME280;5525;42.648;23.368;2023-03-12T09:28:47;94277.84;;;16.62;26.37
10946;BME280;5525;42.648;23.368;2023-03-12T09:31:14;94288.03;;;16.13;27.76
10946;BME280;5525;42.648;23.368;2023-03-12T09:33:41;94285.97;;;15.55;27.93
10946;BME280;5525;42.648;23.368;2023-03-12T09:36:11;94286.63;;;18.53;24.87
10946;BME280;5525;42.648;23.368;2023-03-12T09:38:37;94282.44;;;18.73;23.77
10946;BME280;5525;42.648;23.368;2023-03-12T09:41:10;94283.91;;;19.74;23.53
10946;BME280;5525;42.648;23.368;2023-03-12T09:43:46;94290.91;;;19.40;22.75
10946;BME280;5525;42.648;23.368;2023-03-12T09:46:19;94286.66;;;19.91;23.29
10946;BME280;5525;42.648;23.368;2023-03-12T09:48:49;94283.91;;;19.81;22.99
10946;BME280;5525;42.648;23.368;2023-03-12T09:51:24;94278.41;;;17.48;24.28
10946;BME280;5525;42.648;23.368;2023-03-12T09:53:56;94287.00;;;16.21;26.40
10946;BME280;5525;42.648;23.368;2023-03-12T09:56:25;94287.09;;;17.57;25.01
10946;BME280;5525;42.648;23.368;2023-03-12T09:58:52;94283.06;;;17.88;25.16
10946;BME280;5525;42.648;23.368;2023-03-12T10:01:31;94283.50;;;20.07;22.75
10946;BME280;5525;42.648;23.368;2023-03-12T10:04:27;94282.41;;;18.08;24.01
10946;BME280;5525;42.648;23.368;2023-03-12T10:07:04;94271.09;;;18.75;23.76
10946;BME280;5525;42.648;23.368;2023-03-12T10:10:08;94271.56;;;18.19;24.47
10946;BME280;5525;42.648;23.368;2023-03-12T10:12:45;94270.16;;;17.85;24.96
10946;BME280;5525;42.648;23.368;2023-03-12T10:15:23;94268.53;;;18.34;25.06
10946;BME280;5525;42.648;23.368;2023-03-12T10:18:03;94257.25;;;19.29;23.51
10946;BME280;5525;42.648;23.368;2023-03-12T10:20:48;94260.50;;;21.26;21.42
10946;BME280;5525;42.648;23.368;2023-03-12T10:23:24;94259.00;;;18.72;22.97
10946;BME280;5525;42.648;23.368;2023-03-12T10:25:59;94262.97;;;21.03;21.27
10946;BME280;5525;42.648;23.368;2023-03-12T10:28:33;94258.03;;;22.44;20.23
10946;BME280;5525;42.648;23.368;2023-03-12T10:31:04;94264.22;;;20.70;21.21
10946;BME280;5525;42.648;23.368;2023-03-12T10:33:40;94276.03;;;19.37;22.49
10946;BME280;5525;42.648;23.368;2023-03-12T10:36:13;94270.53;;;17.87;22.44
10946;BME280;5525;42.648;23.368;2023-03-12T10:38:44;94252.75;;;16.50;24.75
10946;BME280;5525;42.648;23.368;2023-03-12T10:41:15;94273.47;;;13.01;28.40
10946;BME280;5525;42.648;23.368;2023-03-12T10:43:42;94282.16;;;15.85;25.71
10946;BME280;5525;42.648;23.368;2023-03-12T10:49:26;94285.06;;;19.97;21.59
10946;BME280;5525;42.648;23.368;2023-03-12T10:51:58;94274.69;;;18.86;23.12
10946;BME280;5525;42.648;23.368;2023-03-12T10:54:35;94276.81;;;19.38;21.62
10946;BME280;5525;42.648;23.368;2023-03-12T10:57:03;94276.28;;;18.22;22.65
10946;BME280;5525;42.648;23.368;2023-03-12T10:59:33;94274.28;;;18.84;22.21
10946;BME280;5525;42.648;23.368;2023-03-12T11:02:11;94265.88;;;18.41;23.03
10946;BME280;5525;42.648;23.368;2023-03-12T11:04:51;94262.72;;;19.36;22.12
10946;BME280;5525;42.648;23.368;2023-03-12T11:07:24;94266.97;;;19.12;22.05
10946;BME280;5525;42.648;23.368;2023-03-12T11:10:13;94275.31;;;19.65;21.41
10946;BME280;5525;42.648;23.368;2023-03-12T11:12:54;94274.13;;;20.40;20.96
10946;BME280;5525;42.648;23.368;2023-03-12T11:15:23;94254.00;;;20.85;20.39
10946;BME280;5525;42.648;23.368;2023-03-12T11:18:22;94258.47;;;19.70;21.11
10946;BME280;5525;42.648;23.368;2023-03-12T11:20:51;94260.94;;;22.71;19.03
10946;BME280;5525;42.648;23.368;2023-03-12T11:23:24;94259.72;;;24.84;17.84
10946;BME280;5525;42.648;23.368;2023-03-12T11:26:00;94258.94;;;22.31;18.69
10946;BME280;5525;42.648;23.368;2023-03-12T11:28:37;94266.69;;;19.70;20.02
10946;BME280;5525;42.648;23.368;2023-03-12T11:31:07;94241.53;;;20.59;20.13
10946;BME280;5525;42.648;23.368;2023-03-12T11:33:36;94256.50;;;19.95;21.70
10946;BME280;5525;42.648;23.368;2023-03-12T11:36:22;94253.88;;;21.13;20.36
10946;BME280;5525;42.648;23.368;2023-03-12T11:38:57;94263.44;;;20.70;20.85
10946;BME280;5525;42.648;23.368;2023-03-12T11:41:45;94259.91;;;18.29;21.76
10946;BME280;5525;42.648;23.368;2023-03-12T11:44:22;94254.78;;;18.17;22.22
10946;BME280;5525;42.648;23.368;2023-03-12T11:46:58;94250.97;;;17.78;22.40
10946;BME280;5525;42.648;23.368;2023-03-12T11:49:41;94247.72;;;18.16;22.58
10946;BME280;5525;42.648;23.368;2023-03-12T11:52:13;94240.44;;;20.29;20.18
10946;BME280;5525;42.648;23.368;2023-03-12T11:55:13;94248.56;;;20.64;20.31
10946;BME280;5525;42.648;23.368;2023-03-12T11:57:50;94247.47;;;17.77;21.59
10946;BME280;5525;42.648;23.368;2023-03-12T12:00:25;94252.81;;;17.63;22.11
10946;BME280;5525;42.648;23.368;2023-03-12T12:03:19;94244.34;;;17.75;21.85
10946;BME280;5525;42.648;23.368;2023-03-12T12:05:57;94247.97;;;14.75;25.66
10946;BME280;5525;42.648;23.368;2023-03-12T12:08:36;94260.75;;;14.17;27.28
10946;BME280;5525;42.648;23.368;2023-03-12T12:11:09;94251.56;;;15.43;26.16
10946;BME280;5525;42.648;23.368;2023-03-12T12:13:49;94248.13;;;16.87;24.88
10946;BME280;5525;42.648;23.368;2023-03-12T12:16:29;94249.34;;;16.01;25.09
10946;BME280;5525;42.648;23.368;2023-03-12T12:19:09;94258.84;;;12.90;27.88
10946;BME280;5525;42.648;23.368;2023-03-12T12:21:55;94249.47;;;12.87;28.47
10946;BME280;5525;42.648;23.368;2023-03-12T12:24:41;94249.09;;;14.17;27.78
10946;BME280;5525;42.648;23.368;2023-03-12T12:27:18;94250.22;;;15.11;26.85
10946;BME280;5525;42.648;23.368;2023-03-12T12:30:03;94249.88;;;13.48;28.89
10946;BME280;5525;42.648;23.368;2023-03-12T12:32:47;94247.38;;;13.08;29.62
10946;BME280;5525;42.648;23.368;2023-03-12T12:35:24;94246.00;;;12.04;31.15
10946;BME280;5525;42.648;23.368;2023-03-12T12:37:55;94239.84;;;13.33;29.56
10946;BME280;5525;42.648;23.368;2023-03-12T12:40:26;94243.94;;;13.11;29.86
10946;BME280;5525;42.648;23.368;2023-03-12T12:43:00;94248.84;;;12.78;30.16
10946;BME280;5525;42.648;23.368;2023-03-12T12:45:32;94250.72;;;12.90;29.85
10946;BME280;5525;42.648;23.368;2023-03-12T12:48:02;94246.94;;;11.84;31.28
10946;BME280;5525;42.648;23.368;2023-03-12T12:50:33;94247.81;;;12.00;31.61
10946;BME280;5525;42.648;23.368;2023-03-12T12:53:07;94245.81;;;12.95;30.74
10946;BME280;5525;42.648;23.368;2023-03-12T12:55:44;94245.00;;;12.64;31.06
10946;BME280;5525;42.648;23.368;2023-03-12T12:58:17;94253.84;;;11.57;32.19
10946;BME280;5525;42.648;23.368;2023-03-12T13:00:50;94253.50;;;11.11;32.89
10946;BME280;5525;42.648;23.368;2023-03-12T13:03:22;94252.19;;;10.72;33.66
10946;BME280;5525;42.648;23.368;2023-03-12T13:05:56;94251.13;;;10.53;34.55
10946;BME280;5525;42.648;23.368;2023-03-12T13:08:57;94250.28;;;9.87;35.16
10946;BME280;5525;42.648;23.368;2023-03-12T13:11:37;94255.19;;;10.26;35.53
10946;BME280;5525;42.648;23.368;2023-03-12T13:14:21;94255.34;;;10.30;35.93
10946;BME280;5525;42.648;23.368;2023-03-12T13:17:05;94274.78;;;9.73;35.91
10946;BME280;5525;42.648;23.368;2023-03-12T13:19:38;94258.34;;;9.08;37.26
10946;BME280;5525;42.648;23.368;2023-03-12T13:22:13;94264.78;;;8.87;37.65
10946;BME280;5525;42.648;23.368;2023-03-12T13:24:48;94266.59;;;9.12;38.53